Time;durP1;ratioP1;P1;durP2;ratioP2;P2;SDS_P1;SDS_P2;PMS_P1;PMS_P2;Temp;Humidity;BMP_temperature;BMP_pressure;BME280_temperature;BME280_humidity;BME280_pressure;Samples;Min_cycle;Max_cycle;Signal;HPM_P1;HPM_P2
2022/09/23 00:00:36;;;;;;;6.25;2.60;;;9.60;99.90;;;;;;5015024;28;20034;-74
2022/09/23 00:03:02;;;;;;;4.43;2.63;;;9.60;99.90;;;;;;5014811;28;20119;-74
2022/09/23 00:05:29;;;;;;;3.80;2.20;;;9.60;99.90;;;;;;5013472;28;20428;-75
2022/09/23 00:07:55;;;;;;;4.55;2.30;;;9.50;99.90;;;;;;5013173;28;20029;-75
2022/09/23 00:10:23;;;;;;;6.65;2.90;;;9.60;99.90;;;;;;5014007;28;20032;-75
2022/09/23 00:12:48;;;;;;;6.18;3.00;;;9.50;99.90;;;;;;5014064;28;20021;-75
2022/09/23 00:15:15;;;;;;;5.13;2.88;;;10.80;99.90;;;;;;5012506;28;20022;-75
2022/09/23 00:17:41;;;;;;;3.55;2.53;;;9.60;99.90;;;;;;5014313;28;20025;-75
2022/09/23 00:20:08;;;;;;;5.10;3.00;;;9.50;99.90;;;;;;5013090;28;20014;-76
2022/09/23 00:22:35;;;;;;;5.47;3.00;;;9.50;99.90;;;;;;5014295;28;20487;-76
2022/09/23 00:25:04;;;;;;;5.95;2.67;;;9.50;99.90;;;;;;5013184;28;20029;-76
2022/09/23 00:27:30;;;;;;;6.85;3.38;;;9.50;99.90;;;;;;5013939;28;20076;-76
2022/09/23 00:29:56;;;;;;;4.00;2.92;;;9.50;99.90;;;;;;5012553;28;20030;-75
2022/09/23 00:32:21;;;;;;;5.20;2.83;;;9.40;99.90;;;;;;5014144;28;20025;-76
2022/09/23 00:34:47;;;;;;;4.32;2.58;;;9.40;99.90;;;;;;5014645;28;20026;-75
2022/09/23 00:37:13;;;;;;;4.03;2.38;;;9.30;99.90;;;;;;5014144;28;20083;-75
2022/09/23 00:39:39;;;;;;;6.22;2.70;;;9.30;99.90;;;;;;5012914;28;20033;-75
2022/09/23 00:42:11;;;;;;;7.35;3.40;;;9.20;99.90;;;;;;5014673;28;20034;-76
2022/09/23 00:44:42;;;;;;;3.60;2.30;;;9.30;99.90;;;;;;5014080;28;20030;-76
2022/09/23 00:47:53;;;;;;;4.95;2.63;;;9.30;99.90;;;;;;5013712;28;20026;-76
2022/09/23 00:50:40;;;;;;;7.28;2.70;;;9.30;99.90;;;;;;5012614;28;20037;-76
2022/09/23 00:53:09;;;;;;;3.83;2.38;;;9.20;99.90;;;;;;5014086;28;20478;-76
2022/09/23 00:55:53;;;;;;;3.17;2.30;;;9.30;99.90;;;;;;5014044;28;20079;-76
2022/09/23 00:58:25;;;;;;;6.68;3.35;;;9.20;99.90;;;;;;5013771;28;20034;-76
2022/09/23 01:00:52;;;;;;;5.38;2.78;;;9.20;99.90;;;;;;5012784;28;20022;-76
2022/09/23 01:03:18;;;;;;;15.93;3.50;;;9.20;99.90;;;;;;5013976;28;20386;-77
2022/09/23 01:05:45;;;;;;;4.03;2.60;;;9.10;99.90;;;;;;5013575;28;20506;-77
2022/09/23 01:08:13;;;;;;;7.72;3.00;;;8.60;99.90;;;;;;5013478;28;20033;-77
2022/09/23 01:10:57;;;;;;;6.28;2.83;;;9.10;99.90;;;;;;5012372;28;20026;-76
2022/09/23 01:13:50;;;;;;;8.50;3.50;;;9.10;99.90;;;;;;5014048;28;20383;-76
2022/09/23 01:16:36;;;;;;;7.43;2.80;;;9.10;99.90;;;;;;5013511;28;20034;-73
2022/09/23 01:19:32;;;;;;;5.85;3.28;;;9.10;99.90;;;;;;5013680;28;20030;-74
2022/09/23 01:22:18;;;;;;;9.55;3.78;;;9.10;99.90;;;;;;5012479;28;20395;-74
2022/09/23 01:24:51;;;;;;;6.78;3.70;;;9.10;99.90;;;;;;5013502;28;20032;-73
2022/09/23 01:27:35;;;;;;;6.45;3.33;;;9.10;99.90;;;;;;5014002;28;20574;-73
2022/09/23 01:30:11;;;;;;;6.05;3.55;;;9.10;99.90;;;;;;5014136;28;20081;-73
2022/09/23 01:33:13;;;;;;;6.45;3.47;;;9.00;99.90;;;;;;5013624;28;20036;-73
2022/09/23 01:35:47;;;;;;;7.65;4.10;;;9.00;99.90;;;;;;5014043;28;20014;-73
2022/09/23 01:38:22;;;;;;;8.00;3.83;;;11.10;99.90;;;;;;5013916;28;20030;-73
2022/09/23 01:41:26;;;;;;;6.63;4.05;;;9.00;99.90;;;;;;5015547;28;20061;-74
2022/09/23 01:44:16;;;;;;;8.35;4.35;;;9.00;99.90;;;;;;5001960;28;20038;-73
2022/09/23 01:46:49;;;;;;;7.40;4.10;;;9.00;99.90;;;;;;5017546;28;20068;-73
2022/09/23 01:49:29;;;;;;;11.45;4.05;;;9.00;99.90;;;;;;5017332;28;20033;-73
2022/09/23 01:52:23;;;;;;;5.63;3.70;;;9.00;99.90;;;;;;5018050;28;20379;-73
2022/09/23 01:55:11;;;;;;;7.28;3.50;;;9.00;99.90;;;;;;5017400;28;20046;-73
2022/09/23 01:57:42;;;;;;;7.50;3.88;;;9.00;99.90;;;;;;5017482;28;20017;-73
2022/09/23 02:00:14;;;;;;;7.57;4.32;;;9.00;99.90;;;;;;5017158;28;20030;-73
2022/09/23 02:02:56;;;;;;;9.43;4.93;;;9.00;99.90;;;;;;5017726;28;20048;-73
2022/09/23 02:05:35;;;;;;;6.97;4.18;;;9.00;99.90;;;;;;5017146;28;20025;-73
2022/09/23 02:08:07;;;;;;;6.63;3.90;;;9.00;99.90;;;;;;5017116;28;20488;-73
2022/09/23 02:10:44;;;;;;;6.72;3.63;;;9.00;99.90;;;;;;5016125;28;20014;-73
2022/09/23 02:13:24;;;;;;;9.35;4.75;;;9.00;99.90;;;;;;5017047;28;20026;-73
2022/09/23 02:15:54;;;;;;;8.57;4.88;;;9.00;99.90;;;;;;5016863;28;20018;-73
2022/09/23 02:18:23;;;;;;;10.45;4.50;;;9.00;99.90;;;;;;5015691;28;20038;-73
2022/09/23 02:20:54;;;;;;;8.68;4.30;;;8.90;99.90;;;;;;5016750;28;20026;-73
2022/09/23 02:23:25;;;;;;;8.13;4.75;;;9.00;99.90;;;;;;5015597;28;20022;-72
2022/09/23 02:26:21;;;;;;;7.82;4.38;;;8.90;99.90;;;;;;5017184;28;20030;-73
2022/09/23 02:29:09;;;;;;;6.90;4.47;;;8.90;99.90;;;;;;5015530;28;20120;-73
2022/09/23 02:31:40;;;;;;;6.15;4.32;;;8.90;99.90;;;;;;5015539;28;20032;-73
2022/09/23 02:34:13;;;;;;;11.23;5.28;;;8.90;99.90;;;;;;5016805;28;20022;-76
2022/09/23 02:37:14;;;;;;;10.40;4.70;;;8.80;99.90;;;;;;5016851;28;20042;-75
2022/09/23 02:39:53;;;;;;;10.68;5.32;;;8.80;99.90;;;;;;5016895;28;20037;-75
2022/09/23 02:42:30;;;;;;;9.48;5.18;;;8.90;99.90;;;;;;5015055;28;20030;-75
2022/09/23 02:44:55;;;;;;;10.15;5.53;;;8.90;99.90;;;;;;5016179;28;20034;-74
2022/09/23 02:47:27;;;;;;;9.57;5.55;;;8.90;99.90;;;;;;5016305;28;20036;-76
2022/09/23 02:49:55;;;;;;;7.97;4.70;;;8.80;99.90;;;;;;5016668;28;20022;-76
2022/09/23 02:52:21;;;;;;;9.35;5.30;;;8.90;99.90;;;;;;5015853;28;20029;-76
2022/09/23 02:54:46;;;;;;;9.57;5.57;;;8.80;99.90;;;;;;5014747;28;20022;-74
2022/09/23 02:57:13;;;;;;;12.90;5.38;;;8.80;99.90;;;;;;5014728;28;20120;-74
2022/09/23 02:59:39;;;;;;;7.50;4.25;;;8.80;99.90;;;;;;5015835;28;20022;-74
2022/09/23 03:02:31;;;;;;;11.43;5.40;;;8.80;99.90;;;;;;5015820;28;20133;-75
2022/09/23 03:05:18;;;;;;;7.40;4.65;;;8.80;99.90;;;;;;5016341;28;20022;-76
2022/09/23 03:08:09;;;;;;;11.60;5.18;;;8.80;99.90;;;;;;5016074;28;20517;-75
2022/09/23 03:10:45;;;;;;;14.05;6.18;;;8.80;99.90;;;;;;4994538;28;20129;-76
2022/09/23 03:13:27;;;;;;;8.70;5.30;;;8.80;99.90;;;;;;5016181;28;20360;-76
2022/09/23 03:16:05;;;;;;;11.88;5.43;;;8.80;99.90;;;;;;5014190;28;20387;-73
2022/09/23 03:18:31;;;;;;;10.77;6.05;;;8.80;99.90;;;;;;5015758;28;20030;-73
2022/09/23 03:21:20;;;;;;;7.95;5.47;;;8.80;99.90;;;;;;5014292;28;20460;-74
2022/09/23 03:23:47;;;;;;;7.80;5.75;;;8.80;99.90;;;;;;5008056;28;20121;-73
2022/09/23 03:26:30;;;;;;;9.70;6.03;;;8.80;99.90;;;;;;5014208;28;20026;-74
2022/09/23 03:28:57;;;;;;;10.85;5.68;;;8.90;99.90;;;;;;5015921;28;20487;-74
2022/09/23 03:31:24;;;;;;;12.00;5.55;;;8.90;99.90;;;;;;5015433;28;20014;-76
2022/09/23 03:33:54;;;;;;;9.68;5.85;;;8.90;99.90;;;;;;5015586;28;20475;-73
2022/09/23 03:36:59;;;;;;;15.90;6.47;;;8.90;99.90;;;;;;5015328;28;20044;-73
2022/09/23 03:39:41;;;;;;;9.88;5.47;;;9.00;99.90;;;;;;5015255;28;20389;-73
2022/09/23 03:42:23;;;;;;;10.48;6.07;;;9.00;99.90;;;;;;5013900;28;20423;-73
2022/09/23 03:44:53;;;;;;;12.02;5.72;;;10.80;99.90;;;;;;5013943;28;20022;-73
2022/09/23 03:47:20;;;;;;;11.02;5.75;;;9.10;99.90;;;;;;5014921;28;20022;-73
2022/09/23 03:49:48;;;;;;;12.85;6.65;;;9.10;99.90;;;;;;5014893;28;20121;-74
2022/09/23 03:52:18;;;;;;;15.50;5.78;;;9.10;99.90;;;;;;5014300;28;20030;-73
2022/09/23 03:54:44;;;;;;;13.98;6.47;;;9.20;99.90;;;;;;5015142;28;20380;-74
2022/09/23 03:57:10;;;;;;;11.30;6.18;;;9.10;99.90;;;;;;5014792;28;20018;-75
2022/09/23 03:59:36;;;;;;;12.02;6.50;;;9.20;99.90;;;;;;5014814;28;20034;-75
2022/09/23 04:02:04;;;;;;;15.05;6.95;;;9.10;99.90;;;;;;5014803;28;20101;-74
2022/09/23 04:04:33;;;;;;;17.35;6.90;;;9.20;99.90;;;;;;5012809;28;20033;-74
2022/09/23 04:06:59;;;;;;;16.88;6.97;;;9.20;99.90;;;;;;5015162;28;20033;-78
2022/09/23 04:09:25;;;;;;;16.35;6.45;;;9.20;99.90;;;;;;5014664;28;20116;-78
2022/09/23 04:11:52;;;;;;;11.20;6.68;;;9.30;99.90;;;;;;5014415;28;20033;-76
2022/09/23 04:14:19;;;;;;;10.93;5.88;;;9.30;99.90;;;;;;5014332;28;20514;-76
2022/09/23 04:16:45;;;;;;;10.15;6.22;;;9.30;99.90;;;;;;5014137;28;20491;-76
2022/09/23 04:19:12;;;;;;;11.80;6.43;;;9.30;99.90;;;;;;5014650;28;20391;-77
2022/09/23 04:21:38;;;;;;;16.17;7.05;;;9.30;99.90;;;;;;5014813;28;20037;-78
2022/09/23 04:24:04;;;;;;;12.27;6.72;;;9.30;99.90;;;;;;5014320;28;20117;-76
2022/09/23 04:26:31;;;;;;;13.32;6.78;;;9.40;99.90;;;;;;5012973;28;20041;-76
2022/09/23 04:28:57;;;;;;;10.52;6.63;;;9.40;99.90;;;;;;5014392;28;20032;-76
2022/09/23 04:31:23;;;;;;;11.75;7.18;;;9.40;99.90;;;;;;5013244;28;20112;-76
2022/09/23 04:33:49;;;;;;;12.63;6.18;;;9.40;99.90;;;;;;5013037;28;20446;-77
2022/09/23 04:36:15;;;;;;;13.63;6.25;;;9.40;99.90;;;;;;5013009;28;20021;-77
2022/09/23 04:38:45;;;;;;;15.88;7.00;;;9.40;99.90;;;;;;5012915;28;20445;-76
2022/09/23 04:41:12;;;;;;;11.82;6.80;;;9.50;99.90;;;;;;5014498;28;20495;-76
2022/09/23 04:43:38;;;;;;;10.80;6.47;;;9.50;99.90;;;;;;5014268;28;20079;-75
2022/09/23 04:46:05;;;;;;;15.90;6.25;;;9.50;99.90;;;;;;5014262;28;20029;-75
2022/09/23 04:48:31;;;;;;;9.23;5.88;;;9.50;99.90;;;;;;5013670;28;20026;-75
2022/09/23 04:51:08;;;;;;;10.80;6.30;;;9.50;99.90;;;;;;5013846;28;20476;-75
2022/09/23 04:53:35;;;;;;;16.23;7.47;;;9.50;99.90;;;;;;5013925;28;20044;-74
2022/09/23 04:56:08;;;;;;;8.40;5.38;;;9.60;99.90;;;;;;5014078;28;20113;-74
2022/09/23 04:58:35;;;;;;;12.55;7.32;;;9.60;99.90;;;;;;5012486;28;20525;-75
2022/09/23 05:01:23;;;;;;;10.48;5.93;;;9.60;99.90;;;;;;5013688;28;20018;-76
2022/09/23 05:03:49;;;;;;;10.55;6.75;;;9.70;99.90;;;;;;5013986;28;20026;-76
2022/09/23 05:06:15;;;;;;;12.95;6.85;;;9.70;99.90;;;;;;5012303;28;20053;-76
2022/09/23 05:08:46;;;;;;;10.82;6.55;;;9.70;99.90;;;;;;5012323;28;20140;-77
2022/09/23 05:11:11;;;;;;;13.05;7.28;;;9.80;99.90;;;;;;5013037;28;20096;-77
2022/09/23 05:13:37;;;;;;;10.88;6.28;;;9.80;99.90;;;;;;5014004;28;20022;-76
2022/09/23 05:16:08;;;;;;;14.05;6.45;;;9.80;99.90;;;;;;5013549;28;20080;-76
2022/09/23 05:18:35;;;;;;;12.23;6.72;;;9.80;99.90;;;;;;5053880;23;20482;-75
2022/09/23 05:21:01;;;;;;;11.15;6.55;;;9.80;99.90;;;;;;5051114;28;20127;-77
2022/09/23 05:23:28;;;;;;;12.70;6.88;;;9.90;99.90;;;;;;5052528;28;20029;-77
2022/09/23 05:26:08;;;;;;;12.00;6.15;;;9.90;99.90;;;;;;5053187;28;20111;-76
2022/09/23 05:28:36;;;;;;;12.25;6.30;;;9.90;99.90;;;;;;5053726;28;20116;-78
2022/09/23 05:31:04;;;;;;;10.98;5.65;;;9.90;99.90;;;;;;5068906;28;20021;-77
2022/09/23 05:33:31;;;;;;;12.57;6.28;;;9.90;99.90;;;;;;5054035;28;20116;-78
2022/09/23 05:35:57;;;;;;;9.27;6.10;;;9.90;99.90;;;;;;5054228;28;20381;-78
2022/09/23 05:38:22;;;;;;;10.43;6.50;;;9.90;99.90;;;;;;5052101;28;20025;-77
2022/09/23 05:40:59;;;;;;;10.57;6.32;;;9.90;99.90;;;;;;5053280;28;20033;-77
2022/09/23 05:43:27;;;;;;;11.00;6.55;;;10.00;99.90;;;;;;5054453;28;20037;-78
2022/09/23 05:46:03;;;;;;;14.57;5.90;;;9.90;99.90;;;;;;5053841;28;20025;-78
2022/09/23 05:48:33;;;;;;;9.50;5.82;;;10.00;99.90;;;;;;5052538;28;20021;-76
2022/09/23 05:50:59;;;;;;;12.25;6.68;;;10.00;99.90;;;;;;5053723;28;20025;-76
2022/09/23 05:53:26;;;;;;;11.52;6.60;;;10.00;99.90;;;;;;5053009;28;20025;-76
2022/09/23 05:55:58;;;;;;;11.43;7.53;;;10.00;99.90;;;;;;5052919;28;20036;-75
2022/09/23 05:58:24;;;;;;;11.15;6.35;;;10.10;99.90;;;;;;5052963;28;20043;-75
2022/09/23 06:00:50;;;;;;;10.57;5.72;;;10.10;99.90;;;;;;5052643;28;20553;-75
2022/09/23 06:03:19;;;;;;;11.45;5.75;;;10.10;99.90;;;;;;5052872;28;20033;-75
2022/09/23 06:05:45;;;;;;;11.48;6.18;;;10.20;99.90;;;;;;5051711;28;20067;-75
2022/09/23 06:08:11;;;;;;;9.32;6.07;;;10.20;99.90;;;;;;5052738;28;20029;-75
2022/09/23 06:10:38;;;;;;;10.05;6.68;;;10.20;99.90;;;;;;5052693;28;20032;-75
2022/09/23 06:13:04;;;;;;;10.15;5.35;;;10.30;99.90;;;;;;5051459;28;20039;-73
2022/09/23 06:15:31;;;;;;;12.57;5.70;;;10.30;99.90;;;;;;5051293;28;20028;-73
2022/09/23 06:17:57;;;;;;;9.88;6.13;;;10.30;99.90;;;;;;5052514;28;20108;-73
2022/09/23 06:20:23;;;;;;;10.55;6.38;;;10.40;99.90;;;;;;5053139;28;20497;-74
2022/09/23 06:22:48;;;;;;;11.95;6.72;;;10.50;99.90;;;;;;5053087;28;20028;-76
2022/09/23 06:25:14;;;;;;;16.40;6.85;;;10.50;99.90;;;;;;5052908;28;20021;-74
2022/09/23 06:27:40;;;;;;;10.20;5.75;;;10.50;99.90;;;;;;5054010;28;20029;-74
2022/09/23 06:30:06;;;;;;;9.55;5.68;;;10.60;99.90;;;;;;5056125;28;20132;-74
2022/09/23 06:32:32;;;;;;;9.50;5.75;;;10.60;99.90;;;;;;5056431;28;20024;-74
2022/09/23 06:34:58;;;;;;;10.45;6.03;;;10.70;99.90;;;;;;5056129;28;20029;-74
2022/09/23 06:37:24;;;;;;;13.90;6.68;;;10.80;99.90;;;;;;5056022;28;20044;-74
2022/09/23 06:39:49;;;;;;;40.92;6.95;;;10.80;99.90;;;;;;5055988;28;20017;-73
2022/09/23 06:42:15;;;;;;;10.95;5.60;;;10.90;99.90;;;;;;5056217;28;20115;-74
2022/09/23 06:44:42;;;;;;;12.88;5.30;;;11.00;99.90;;;;;;5056195;28;20025;-75
2022/09/23 06:47:07;;;;;;;12.40;6.85;;;11.10;99.90;;;;;;5056104;28;20489;-75
2022/09/23 06:49:34;;;;;;;8.45;5.38;;;11.10;99.90;;;;;;5054457;28;20032;-75
2022/09/23 06:51:59;;;;;;;14.73;5.95;;;11.20;99.90;;;;;;5055999;28;20024;-74
2022/09/23 06:54:29;;;;;;;10.60;5.82;;;11.30;99.90;;;;;;5055679;28;20021;-75
2022/09/23 06:56:55;;;;;;;10.35;6.07;;;11.40;99.90;;;;;;5055587;28;20009;-75
2022/09/23 06:59:20;;;;;;;15.75;5.78;;;11.50;99.90;;;;;;5053571;28;20029;-75
2022/09/23 07:01:47;;;;;;;11.35;5.90;;;11.60;99.90;;;;;;5053972;28;20025;-75
2022/09/23 07:04:13;;;;;;;11.43;5.80;;;11.60;99.90;;;;;;5053644;28;20032;-75
2022/09/23 07:06:38;;;;;;;11.02;5.95;;;11.70;99.90;;;;;;5054773;28;20510;-75
2022/09/23 07:09:05;;;;;;;18.40;6.82;;;11.80;99.90;;;;;;5054961;28;20057;-75
2022/09/23 07:11:31;;;;;;;13.85;6.35;;;11.80;99.90;;;;;;5048491;28;20026;-77
2022/09/23 07:13:57;;;;;;;11.60;6.10;;;11.80;99.90;;;;;;5043857;28;20395;-75
2022/09/23 07:16:22;;;;;;;15.05;5.72;;;12.00;99.90;;;;;;5052878;28;20029;-75
2022/09/23 07:18:48;;;;;;;10.13;5.72;;;12.00;99.90;;;;;;5054010;28;20021;-74
2022/09/23 07:21:16;;;;;;;9.68;5.80;;;12.10;99.90;;;;;;5055536;28;20029;-74
2022/09/23 07:23:44;;;;;;;13.27;5.30;;;12.10;99.90;;;;;;5053916;28;20052;-74
2022/09/23 07:26:10;;;;;;;8.20;4.90;;;12.20;99.90;;;;;;5055131;28;20104;-74
2022/09/23 07:28:37;;;;;;;8.50;5.40;;;12.30;99.90;;;;;;5054991;28;20553;-74
2022/09/23 07:31:09;;;;;;;8.05;5.60;;;12.40;99.90;;;;;;5055275;28;20473;-74
2022/09/23 07:33:36;;;;;;;17.27;6.55;;;12.40;99.90;;;;;;5055085;28;20017;-74
2022/09/23 07:36:07;;;;;;;10.82;5.30;;;12.50;99.90;;;;;;5053556;28;20078;-74
2022/09/23 07:38:33;;;;;;;9.95;5.90;;;12.60;99.90;;;;;;5053798;28;20029;-74
2022/09/23 07:41:05;;;;;;;9.00;5.10;;;12.80;99.90;;;;;;5055012;28;20071;-74
2022/09/23 07:43:31;;;;;;;10.35;5.82;;;12.90;99.90;;;;;;5054839;28;20508;-74
2022/09/23 07:45:59;;;;;;;7.55;5.30;;;13.00;99.90;;;;;;5054671;28;20021;-75
2022/09/23 07:48:25;;;;;;;10.43;5.65;;;13.10;99.90;;;;;;5054611;28;20112;-74
2022/09/23 07:50:50;;;;;;;12.63;6.15;;;13.30;99.90;;;;;;5054704;28;20096;-75
2022/09/23 07:53:16;;;;;;;11.57;5.55;;;13.40;99.90;;;;;;5055146;28;20449;-74
2022/09/23 07:55:41;;;;;;;7.55;4.97;;;13.60;99.90;;;;;;5055093;28;20025;-74
2022/09/23 07:58:07;;;;;;;9.02;5.28;;;13.70;99.90;;;;;;5055019;28;20080;-74
2022/09/23 08:00:33;;;;;;;8.73;5.55;;;13.80;99.90;;;;;;5054514;28;20445;-74
2022/09/23 08:02:59;;;;;;;9.38;5.30;;;13.90;99.90;;;;;;5054379;28;20041;-74
2022/09/23 08:05:24;;;;;;;12.60;5.22;;;14.00;99.90;;;;;;5054640;28;20043;-74
2022/09/23 08:07:50;;;;;;;8.77;4.75;;;14.00;99.90;;;;;;5054221;28;20021;-74
2022/09/23 08:10:19;;;;;;;8.38;4.38;;;14.10;99.90;;;;;;5052957;28;20036;-74
2022/09/23 08:12:45;;;;;;;;;;;14.30;99.90;;;;;;5054635;28;20021;-74
2022/09/23 08:15:11;;;;;;;8.73;5.07;;;14.40;99.90;;;;;;5052871;28;19911;-74
2022/09/23 08:17:36;;;;;;;8.23;4.93;;;14.40;99.90;;;;;;5054056;28;20045;-74
2022/09/23 08:20:02;;;;;;;6.80;4.60;;;14.50;99.90;;;;;;5054081;28;20056;-74
2022/09/23 08:22:28;;;;;;;7.97;4.80;;;14.60;99.90;;;;;;5054575;28;20036;-74
2022/09/23 08:24:54;;;;;;;9.55;4.72;;;14.50;99.90;;;;;;5052704;28;20020;-74
2022/09/23 08:27:20;;;;;;;11.13;5.13;;;14.60;99.90;;;;;;5054461;28;20044;-74
2022/09/23 08:29:46;;;;;;;9.90;4.75;;;14.70;99.90;;;;;;5052734;28;20437;-74
2022/09/23 08:32:12;;;;;;;13.65;4.88;;;14.70;99.90;;;;;;5052604;28;20470;-74
2022/09/23 08:34:37;;;;;;;8.90;4.60;;;14.80;99.90;;;;;;5052628;28;20021;-75
2022/09/23 08:37:03;;;;;;;9.38;4.40;;;14.90;99.90;;;;;;5052385;28;20021;-74
2022/09/23 08:39:29;;;;;;;8.50;4.38;;;15.00;99.90;;;;;;5053999;28;20017;-75
2022/09/23 08:42:32;;;;;;;7.35;4.90;;;15.10;99.90;;;;;;5054253;28;20059;-74
2022/09/23 08:45:05;;;;;;;9.13;4.85;;;15.30;99.90;;;;;;5053223;28;20067;-74
2022/09/23 08:48:05;;;;;;;9.68;4.57;;;15.40;99.90;;;;;;5053816;28;20035;-74
2022/09/23 08:50:44;;;;;;;6.15;3.83;;;15.40;99.90;;;;;;5053301;28;20524;-74
2022/09/23 08:53:25;;;;;;;10.60;4.45;;;15.50;99.90;;;;;;5053534;28;20025;-74
2022/09/23 08:55:53;;;;;;;9.90;4.65;;;15.60;99.90;;;;;;5053433;28;20031;-74
2022/09/23 08:58:37;;;;;;;12.23;4.60;;;15.60;99.90;;;;;;5053616;28;20048;-74
2022/09/23 09:01:20;;;;;;;7.22;4.22;;;15.80;99.90;;;;;;5054031;28;20100;-74
2022/09/23 09:04:13;;;;;;;8.02;4.40;;;15.80;99.90;;;;;;5053722;28;20021;-74
2022/09/23 09:06:45;;;;;;;5.78;3.25;;;15.90;99.90;;;;;;5053303;28;20021;-74
2022/09/23 09:09:44;;;;;;;8.38;3.72;;;15.90;99.90;;;;;;5053222;28;20021;-74
2022/09/23 09:12:21;;;;;;;6.63;3.85;;;16.00;99.90;;;;;;5053322;28;20028;-74
2022/09/23 09:15:04;;;;;;;7.95;3.78;;;16.10;99.90;;;;;;5053797;28;20017;-74
2022/09/23 09:17:58;;;;;;;8.75;3.58;;;16.30;99.90;;;;;;5053096;28;20477;-74
2022/09/23 09:20:59;;;;;;;6.25;3.10;;;16.30;99.90;;;;;;5053736;28;20036;-74
2022/09/23 09:23:42;;;;;;;7.30;3.58;;;16.40;99.90;;;;;;5053225;28;20025;-74
2022/09/23 09:26:14;;;;;;;9.65;3.45;;;16.50;99.90;;;;;;5051879;28;20123;-74
2022/09/23 09:28:50;;;;;;;6.30;3.22;;;16.60;99.90;;;;;;5053126;28;20389;-74
2022/09/23 09:31:24;;;;;;;8.75;3.75;;;16.60;99.90;;;;;;5053188;28;20029;-74
2022/09/23 09:34:10;;;;;;;4.93;2.65;;;16.70;99.90;;;;;;5053378;28;20049;-74
2022/09/23 09:36:50;;;;;;;5.00;2.55;;;16.80;99.90;;;;;;5051745;28;20029;-74
2022/09/23 09:39:18;;;;;;;7.68;2.67;;;16.90;99.90;;;;;;5053028;28;20025;-74
2022/09/23 09:41:50;;;;;;;5.25;2.97;;;16.90;99.90;;;;;;5053031;28;20057;-74
2022/09/23 09:44:41;;;;;;;4.82;2.55;;;17.00;99.90;;;;;;5051829;28;20025;-74
2022/09/23 09:47:37;;;;;;;6.28;2.92;;;17.20;99.90;;;;;;5040356;28;20059;-74
2022/09/23 09:50:05;;;;;;;5.43;2.35;;;17.30;99.90;;;;;;5053517;28;20044;-74
2022/09/23 09:52:31;;;;;;;4.90;2.55;;;17.60;99.90;;;;;;5052845;28;20025;-74
2022/09/23 09:55:12;;;;;;;5.80;2.55;;;17.80;99.90;;;;;;5051787;28;20124;-74
2022/09/23 09:58:02;;;;;;;3.85;2.20;;;17.80;99.90;;;;;;5052728;28;20029;-74
2022/09/23 10:00:37;;;;;;;6.45;2.38;;;18.00;99.90;;;;;;5051723;28;20509;-74
2022/09/23 10:03:08;;;;;;;5.00;1.77;;;18.10;99.90;;;;;;5056306;28;20486;-74
2022/09/23 10:05:56;;;;;;;6.80;2.75;;;18.20;99.90;;;;;;5055443;28;20032;-74
2022/09/23 10:08:25;;;;;;;7.97;2.55;;;18.30;99.90;;;;;;5055370;28;20074;-74
2022/09/23 10:11:03;;;;;;;11.30;2.33;;;18.30;99.90;;;;;;5055283;28;20059;-74
2022/09/23 10:13:32;;;;;;;6.07;2.13;;;18.50;99.90;;;;;;5056904;28;20074;-74
2022/09/23 10:15:59;;;;;;;;;;;18.50;99.90;;;;;;5056918;28;20106;-74
2022/09/23 10:18:45;;;;;;;4.30;1.30;;;18.50;99.90;;;;;;5055071;28;20289;-74
2022/09/23 10:21:19;;;;;;;3.90;1.77;;;18.60;99.90;;;;;;5056692;28;20078;-74
2022/09/23 10:23:47;;;;;;;5.10;1.55;;;18.70;99.90;;;;;;5056703;28;20021;-74
2022/09/23 10:26:16;;;;;;;3.57;1.63;;;18.70;99.90;;;;;;5056651;28;20021;-74
2022/09/23 10:28:51;;;;;;;4.15;1.25;;;18.70;99.90;;;;;;5054964;28;20482;-74
2022/09/23 10:31:32;;;;;;;6.65;1.65;;;18.70;99.90;;;;;;5056477;28;20029;-74
2022/09/23 10:34:00;;;;;;;6.18;1.50;;;18.70;99.90;;;;;;5056168;28;20021;-74
2022/09/23 10:36:28;;;;;;;8.90;2.08;;;18.80;99.90;;;;;;5055997;28;20203;-74
2022/09/23 10:47:52;;;;;;;8.32;1.80;;;18.80;99.90;;;;;;5056151;28;20047;-73
2022/09/23 10:50:34;;;;;;;8.55;2.10;;;18.90;99.90;;;;;;5056321;28;20021;-73
2022/09/23 10:53:10;;;;;;;7.82;1.52;;;19.00;99.90;;;;;;5055806;28;20489;-74
2022/09/23 10:55:48;;;;;;;5.00;1.35;;;19.10;99.90;;;;;;5054767;28;20393;-73
2022/09/23 10:58:36;;;;;;;3.17;1.35;;;19.00;99.90;;;;;;5055654;28;20108;-73
2022/09/23 11:01:16;;;;;;;6.75;1.55;;;19.00;99.90;;;;;;5056705;28;20032;-73
2022/09/23 11:04:00;;;;;;;5.57;1.73;;;18.90;99.90;;;;;;5055924;28;20100;-73
2022/09/23 11:06:25;;;;;;;7.53;2.08;;;18.80;99.90;;;;;;5055542;28;20027;-73
2022/09/23 11:09:06;;;;;;;6.07;2.03;;;18.90;99.90;;;;;;5054206;28;20115;-73
2022/09/23 11:11:51;;;;;;;4.57;1.73;;;19.00;99.90;;;;;;5054294;28;20040;-74
2022/09/23 11:14:37;;;;;;;4.32;1.52;;;18.90;99.60;;;;;;5070873;28;20124;-73
2022/09/23 11:17:27;;;;;;;5.35;1.60;;;18.90;99.90;;;;;;5055447;28;20075;-74
2022/09/23 11:20:05;;;;;;;5.40;2.33;;;18.90;99.90;;;;;;5055974;28;20033;-74
2022/09/23 11:23:14;;;;;;;4.53;2.38;;;18.80;99.90;;;;;;5055572;28;20033;-74
2022/09/23 11:25:54;;;;;;;5.72;1.88;;;18.80;99.90;;;;;;5013714;28;20490;-74
2022/09/23 11:29:13;;;;;;;5.47;2.17;;;18.90;99.90;;;;;;4997516;28;20092;-74
2022/09/23 11:31:57;;;;;;;8.15;1.55;;;18.90;99.90;;;;;;5008372;28;20029;-73
2022/09/23 11:34:50;;;;;;;4.75;1.75;;;19.00;99.90;;;;;;5070470;28;20029;-73
2022/09/23 11:37:26;;;;;;;3.85;1.77;;;19.00;99.90;;;;;;5070338;28;20033;-74
2022/09/23 11:40:01;;;;;;;6.35;2.08;;;19.00;99.90;;;;;;5055003;28;20033;-74
2022/09/23 11:42:32;;;;;;;4.85;1.55;;;18.90;99.90;;;;;;5054830;28;20086;-74
2022/09/23 11:45:05;;;;;;;4.28;1.23;;;18.90;99.90;;;;;;5055412;28;20032;-74
2022/09/23 11:47:49;;;;;;;5.32;1.13;;;18.90;99.90;;;;;;5055094;28;20031;-74
2022/09/23 11:50:31;;;;;;;4.30;1.00;;;18.90;99.90;;;;;;5055038;28;20025;-73
2022/09/23 11:53:35;;;;;;;3.97;1.17;;;18.80;99.90;;;;;;5055196;28;20021;-74
2022/09/23 11:56:22;;;;;;;3.40;1.27;;;18.70;99.90;;;;;;5052487;28;20041;-74
2022/09/23 11:58:57;;;;;;;3.17;1.38;;;18.70;99.90;;;;;;5054522;28;20025;-73
2022/09/23 12:01:34;;;;;;;3.65;1.73;;;18.60;99.90;;;;;;5053426;28;20079;-74
2022/09/23 12:04:18;;;;;;;4.05;1.15;;;18.60;99.90;;;;;;5055013;28;20100;-73
2022/09/23 12:07:07;;;;;;;3.40;1.20;;;18.70;99.90;;;;;;5055503;28;20061;-75
2022/09/23 12:09:54;;;;;;;;;;;18.60;99.90;;;;;;5049116;28;20048;-75
2022/09/23 12:12:59;;;;;;;5.13;0.82;;;18.70;99.90;;;;;;5054303;28;19995;-75
2022/09/23 12:15:57;;;;;;;2.05;1.10;;;18.70;99.90;;;;;;5052926;28;20055;-75
2022/09/23 12:18:55;;;;;;;4.90;1.20;;;18.70;99.90;;;;;;5001987;28;20041;-75
2022/09/23 12:21:37;;;;;;;;;;;18.80;99.90;;;;;;5054632;28;20656;-76
2022/09/23 12:25:03;;;;;;;4.20;0.80;;;18.60;99.90;;;;;;5053447;28;19908;-76
2022/09/23 12:27:43;;;;;;;4.53;0.90;;;18.50;99.90;;;;;;4986982;28;20034;-76
2022/09/23 12:30:16;;;;;;;3.45;0.65;;;18.50;99.90;;;;;;5046790;28;20398;-75
2022/09/23 12:32:42;;;;;;;5.25;0.65;;;18.50;99.90;;;;;;5053947;28;20028;-76
2022/09/23 12:35:34;;;;;;;4.60;1.08;;;18.60;99.90;;;;;;5069248;28;20386;-75
2022/09/23 12:38:01;;;;;;;12.77;1.02;;;18.80;99.90;;;;;;5069149;28;20056;-75
2022/09/23 12:40:43;;;;;;;4.05;0.70;;;18.90;99.90;;;;;;5054131;28;20021;-75
2022/09/23 12:43:33;;;;;;;2.63;0.30;;;19.00;99.90;;;;;;5070634;28;20525;-75
2022/09/23 12:46:24;;;;;;;1.30;0.50;;;19.40;99.90;;;;;;5040159;28;20050;-74
2022/09/23 12:48:56;;;;;;;1.02;0.60;;;19.90;99.90;;;;;;5054099;28;20029;-76
2022/09/23 12:51:23;;;;;;;3.47;0.70;;;20.40;99.60;;;;;;5053849;28;20025;-75
2022/09/23 12:54:04;;;;;;;2.25;0.52;;;20.90;98.20;;;;;;5056353;28;20383;-76
2022/09/23 12:56:38;;;;;;;2.38;0.95;;;21.00;97.00;;;;;;5054585;28;20394;-75
2022/09/23 12:59:24;;;;;;;2.90;0.60;;;20.90;96.20;;;;;;5052336;28;20036;-76
2022/09/23 13:01:56;;;;;;;1.75;0.30;;;20.80;96.40;;;;;;5053564;28;20523;-74
2022/09/23 13:07:33;;;;;;;0.70;0.15;;;20.60;97.00;;;;;;5053575;28;20078;-75
2022/09/23 13:10:28;;;;;;;1.88;0.75;;;20.50;98.50;;;;;;5052322;28;20055;-74
2022/09/23 13:12:55;;;;;;;1.85;0.80;;;20.40;97.90;;;;;;5052065;28;20532;-73
2022/09/23 13:15:31;;;;;;;4.03;1.17;;;20.30;99.70;;;;;;5053751;28;20378;-74
2022/09/23 13:18:22;;;;;;;3.63;1.48;;;20.10;98.60;;;;;;5054231;28;20423;-73
2022/09/23 13:20:50;;;;;;;4.65;0.95;;;20.00;99.00;;;;;;5053698;28;20535;-73
2022/09/23 13:23:32;;;;;;;2.90;0.73;;;19.90;99.80;;;;;;5051732;28;20107;-75
2022/09/23 13:26:09;;;;;;;1.63;1.17;;;19.80;99.30;;;;;;5052900;28;20075;-73
2022/09/23 13:29:02;;;;;;;6.25;1.75;;;19.70;99.20;;;;;;5053088;28;20025;-73
2022/09/23 13:31:28;;;;;;;3.03;1.38;;;19.70;99.90;;;;;;5053551;28;20413;-74
2022/09/23 13:34:03;;;;;;;4.68;2.40;;;19.60;99.90;;;;;;5053147;28;20085;-73
2022/09/23 13:36:28;;;;;;;5.93;2.47;;;19.60;99.90;;;;;;5052573;28;20389;-74